<?xml version="1.0" encoding="UTF-8" standalone="no" ?>
<gpx xmlns="http://www.topografix.com/GPX/1/1" xmlns:xsi="http://www.w3.org/2001/XMLSchema-instance" xsi:schemaLocation="http://www.topografix.com/GPX/1/1 http://www.topografix.com/GPX/1/1/gpx.xsd" version="1.1" creator="VisuGPX - https://www.visugpx.com">
  <metadata>
    <name>Circuits autour de Monthermé</name>
  </metadata>
  <trk>
    <name><![CDATA[Roche à 7 Heures]]></name>
    <extensions>
      <line xmlns="http://www.topografix.com/GPX/gpx_style/0/2">
        <color>0000FF</color>
        <width>4</width>
      </line>
    </extensions>
    <trkseg>
      <trkpt lat="49.88517" lon="4.73847">
        <ele>140</ele>
        <time>2017-03-12T12:02:22+01:00</time>
      </trkpt>
      <trkpt lat="49.88515" lon="4.73874">
        <ele>142</ele>
      </trkpt>
      <trkpt lat="49.88509" lon="4.73889">
        <ele>143</ele>
        <time>2017-03-12T12:03:17+01:00</time>
      </trkpt>
      <trkpt lat="49.88499" lon="4.73908">
        <ele>144</ele>
        <time>2017-03-12T12:03:30+01:00</time>
      </trkpt>
      <trkpt lat="49.88485" lon="4.73935">
        <ele>145</ele>
        <time>2017-03-12T12:04:01+01:00</time>
      </trkpt>
      <trkpt lat="49.88477" lon="4.7395">
        <ele>145</ele>
      </trkpt>
      <trkpt lat="49.88469" lon="4.73964">
        <ele>145</ele>
      </trkpt>
      <trkpt lat="49.88455" lon="4.73986">
        <ele>145</ele>
        <time>2017-03-12T12:05:11+01:00</time>
      </trkpt>
      <trkpt lat="49.88443" lon="4.74007">
        <ele>145</ele>
        <time>2017-03-12T12:05:27+01:00</time>
      </trkpt>
      <trkpt lat="49.88428" lon="4.74027">
        <ele>145</ele>
        <time>2017-03-12T12:05:40+01:00</time>
      </trkpt>
      <trkpt lat="49.88416" lon="4.74049">
        <ele>145</ele>
        <time>2017-03-12T12:06:02+01:00</time>
      </trkpt>
      <trkpt lat="49.88403" lon="4.7407">
        <ele>145</ele>
        <time>2017-03-12T12:06:17+01:00</time>
      </trkpt>
      <trkpt lat="49.88387" lon="4.74083">
        <ele>145</ele>
        <time>2017-03-12T12:06:45+01:00</time>
      </trkpt>
      <trkpt lat="49.88376" lon="4.74105">
        <ele>145</ele>
        <time>2017-03-12T12:07:17+01:00</time>
      </trkpt>
      <trkpt lat="49.88371" lon="4.74131">
        <ele>146</ele>
        <time>2017-03-12T12:07:34+01:00</time>
      </trkpt>
      <trkpt lat="49.8836" lon="4.74154">
        <ele>146</ele>
        <time>2017-03-12T12:07:50+01:00</time>
      </trkpt>
      <trkpt lat="49.88348" lon="4.74176">
        <ele>146</ele>
        <time>2017-03-12T12:08:07+01:00</time>
      </trkpt>
      <trkpt lat="49.88336" lon="4.74199">
        <ele>146</ele>
        <time>2017-03-12T12:08:21+01:00</time>
      </trkpt>
      <trkpt lat="49.88327" lon="4.74226">
        <ele>146</ele>
        <time>2017-03-12T12:08:37+01:00</time>
      </trkpt>
      <trkpt lat="49.88324" lon="4.74253">
        <ele>148</ele>
        <time>2017-03-12T12:08:56+01:00</time>
      </trkpt>
      <trkpt lat="49.88322" lon="4.74282">
        <ele>149</ele>
        <time>2017-03-12T12:09:21+01:00</time>
      </trkpt>
      <trkpt lat="49.88324" lon="4.7431">
        <ele>151</ele>
        <time>2017-03-12T12:09:35+01:00</time>
      </trkpt>
      <trkpt lat="49.88329" lon="4.74337">
        <ele>153</ele>
        <time>2017-03-12T12:09:58+01:00</time>
      </trkpt>
      <trkpt lat="49.8834" lon="4.74367">
        <ele>156</ele>
        <time>2017-03-12T12:10:25+01:00</time>
      </trkpt>
      <trkpt lat="49.88347" lon="4.74383">
        <ele>158</ele>
        <time>2017-03-12T12:10:46+01:00</time>
      </trkpt>
      <trkpt lat="49.88357" lon="4.74404">
        <ele>160</ele>
        <time>2017-03-12T12:11:04+01:00</time>
      </trkpt>
      <trkpt lat="49.88368" lon="4.7443">
        <ele>161</ele>
      </trkpt>
      <trkpt lat="49.88371" lon="4.74447">
        <ele>162</ele>
        <time>2017-03-12T12:11:38+01:00</time>
      </trkpt>
      <trkpt lat="49.88375" lon="4.74484">
        <ele>163</ele>
        <time>2017-03-12T12:11:56+01:00</time>
      </trkpt>
      <trkpt lat="49.88388" lon="4.74502">
        <ele>165</ele>
        <time>2017-03-12T12:12:38+01:00</time>
      </trkpt>
      <trkpt lat="49.88406" lon="4.74495">
        <ele>167</ele>
      </trkpt>
      <trkpt lat="49.88416" lon="4.7447">
        <ele>166</ele>
      </trkpt>
      <trkpt lat="49.88427" lon="4.74458">
        <ele>168</ele>
      </trkpt>
      <trkpt lat="49.88447" lon="4.74458">
        <ele>171</ele>
      </trkpt>
      <trkpt lat="49.88461" lon="4.74459">
        <ele>173</ele>
        <time>2017-03-12T12:13:18+01:00</time>
      </trkpt>
      <trkpt lat="49.88481" lon="4.74462">
        <ele>177</ele>
        <time>2017-03-12T12:14:17+01:00</time>
      </trkpt>
      <trkpt lat="49.88497" lon="4.74451">
        <ele>178</ele>
        <time>2017-03-12T12:14:34+01:00</time>
      </trkpt>
      <trkpt lat="49.88513" lon="4.74437">
        <ele>180</ele>
        <time>2017-03-12T12:14:51+01:00</time>
      </trkpt>
      <trkpt lat="49.88529" lon="4.74419">
        <ele>181</ele>
        <time>2017-03-12T12:15:06+01:00</time>
      </trkpt>
      <trkpt lat="49.88543" lon="4.74402">
        <ele>182</ele>
        <time>2017-03-12T12:15:22+01:00</time>
      </trkpt>
      <trkpt lat="49.8856" lon="4.74389">
        <ele>184</ele>
        <time>2017-03-12T12:15:41+01:00</time>
      </trkpt>
      <trkpt lat="49.8858" lon="4.74382">
        <ele>186</ele>
        <time>2017-03-12T12:16:04+01:00</time>
      </trkpt>
      <trkpt lat="49.88596" lon="4.74382">
        <ele>188</ele>
        <time>2017-03-12T12:16:23+01:00</time>
      </trkpt>
      <trkpt lat="49.88614" lon="4.74384">
        <ele>191</ele>
        <time>2017-03-12T12:16:44+01:00</time>
      </trkpt>
      <trkpt lat="49.88634" lon="4.74382">
        <ele>193</ele>
        <time>2017-03-12T12:17:10+01:00</time>
      </trkpt>
      <trkpt lat="49.88653" lon="4.74387">
        <ele>196</ele>
        <time>2017-03-12T12:17:52+01:00</time>
      </trkpt>
      <trkpt lat="49.8867" lon="4.74389">
        <ele>198</ele>
        <time>2017-03-12T12:18:19+01:00</time>
      </trkpt>
      <trkpt lat="49.88688" lon="4.74389">
        <ele>201</ele>
        <time>2017-03-12T12:18:31+01:00</time>
      </trkpt>
      <trkpt lat="49.88706" lon="4.74389">
        <ele>205</ele>
        <time>2017-03-12T12:18:46+01:00</time>
      </trkpt>
      <trkpt lat="49.88716" lon="4.74412">
        <ele>210</ele>
        <time>2017-03-12T12:19:15+01:00</time>
      </trkpt>
      <trkpt lat="49.88713" lon="4.74441">
        <ele>212</ele>
        <time>2017-03-12T12:19:36+01:00</time>
      </trkpt>
      <trkpt lat="49.88719" lon="4.74468">
        <ele>216</ele>
        <time>2017-03-12T12:19:55+01:00</time>
      </trkpt>
      <trkpt lat="49.88723" lon="4.74497">
        <ele>219</ele>
        <time>2017-03-12T12:20:19+01:00</time>
      </trkpt>
      <trkpt lat="49.88728" lon="4.74524">
        <ele>222</ele>
        <time>2017-03-12T12:20:41+01:00</time>
      </trkpt>
      <trkpt lat="49.8873" lon="4.74552">
        <ele>225</ele>
        <time>2017-03-12T12:21:01+01:00</time>
      </trkpt>
      <trkpt lat="49.88732" lon="4.7458">
        <ele>227</ele>
        <time>2017-03-12T12:21:22+01:00</time>
      </trkpt>
      <trkpt lat="49.88741" lon="4.74605">
        <ele>227</ele>
        <time>2017-03-12T12:21:41+01:00</time>
      </trkpt>
      <trkpt lat="49.88752" lon="4.74584">
        <ele>230</ele>
        <time>2017-03-12T12:22:56+01:00</time>
      </trkpt>
      <trkpt lat="49.88764" lon="4.74561">
        <ele>232</ele>
        <time>2017-03-12T12:23:15+01:00</time>
      </trkpt>
      <trkpt lat="49.88773" lon="4.74536">
        <ele>233</ele>
        <time>2017-03-12T12:23:35+01:00</time>
      </trkpt>
      <trkpt lat="49.88777" lon="4.74512">
        <ele>232</ele>
        <time>2017-03-12T12:24:02+01:00</time>
      </trkpt>
      <trkpt lat="49.88786" lon="4.74489">
        <ele>233</ele>
      </trkpt>
      <trkpt lat="49.88794" lon="4.74457">
        <ele>231</ele>
        <time>2017-03-12T12:24:38+01:00</time>
      </trkpt>
      <trkpt lat="49.88805" lon="4.74443">
        <ele>233</ele>
        <time>2017-03-12T12:24:59+01:00</time>
      </trkpt>
      <trkpt lat="49.88819" lon="4.74432">
        <ele>235</ele>
        <time>2017-03-12T12:25:22+01:00</time>
      </trkpt>
      <trkpt lat="49.88834" lon="4.74419">
        <ele>237</ele>
        <time>2017-03-12T12:25:36+01:00</time>
      </trkpt>
      <trkpt lat="49.88852" lon="4.74408">
        <ele>240</ele>
        <time>2017-03-12T12:25:52+01:00</time>
      </trkpt>
      <trkpt lat="49.88865" lon="4.74389">
        <ele>242</ele>
        <time>2017-03-12T12:26:52+01:00</time>
      </trkpt>
      <trkpt lat="49.88882" lon="4.74376">
        <ele>245</ele>
        <time>2017-03-12T12:27:09+01:00</time>
      </trkpt>
      <trkpt lat="49.88895" lon="4.74356">
        <ele>247</ele>
        <time>2017-03-12T12:27:33+01:00</time>
      </trkpt>
      <trkpt lat="49.88908" lon="4.74336">
        <ele>249</ele>
        <time>2017-03-12T12:28:18+01:00</time>
      </trkpt>
      <trkpt lat="49.8892" lon="4.74314">
        <ele>250</ele>
        <time>2017-03-12T12:28:40+01:00</time>
      </trkpt>
      <trkpt lat="49.88935" lon="4.74296">
        <ele>250</ele>
        <time>2017-03-12T12:29:00+01:00</time>
      </trkpt>
      <trkpt lat="49.88952" lon="4.74285">
        <ele>251</ele>
        <time>2017-03-12T12:29:20+01:00</time>
      </trkpt>
      <trkpt lat="49.8897" lon="4.74277">
        <ele>253</ele>
        <time>2017-03-12T12:29:41+01:00</time>
      </trkpt>
      <trkpt lat="49.88988" lon="4.74274">
        <ele>255</ele>
        <time>2017-03-12T12:30:01+01:00</time>
      </trkpt>
      <trkpt lat="49.89006" lon="4.74281">
        <ele>257</ele>
        <time>2017-03-12T12:30:15+01:00</time>
      </trkpt>
      <trkpt lat="49.89024" lon="4.7428">
        <ele>257</ele>
        <time>2017-03-12T12:30:32+01:00</time>
      </trkpt>
      <trkpt lat="49.89044" lon="4.74268">
        <ele>258</ele>
      </trkpt>
      <trkpt lat="49.89038" lon="4.74242">
        <ele>258</ele>
      </trkpt>
      <trkpt lat="49.89038" lon="4.7423">
        <ele>258</ele>
        <time>2017-03-12T12:31:25+01:00</time>
      </trkpt>
      <trkpt lat="49.89031" lon="4.74204">
        <ele>258</ele>
        <time>2017-03-12T12:31:39+01:00</time>
      </trkpt>
      <trkpt lat="49.89024" lon="4.74177">
        <ele>256</ele>
        <time>2017-03-12T12:31:54+01:00</time>
      </trkpt>
      <trkpt lat="49.89019" lon="4.7415">
        <ele>255</ele>
        <time>2017-03-12T12:32:08+01:00</time>
      </trkpt>
      <trkpt lat="49.89018" lon="4.74153">
        <ele>255</ele>
        <time>2017-03-12T12:33:18+01:00</time>
      </trkpt>
      <trkpt lat="49.89038" lon="4.74228">
        <ele>258</ele>
        <time>2017-03-12T13:13:04+01:00</time>
      </trkpt>
      <trkpt lat="49.89041" lon="4.74189">
        <ele>259</ele>
        <time>2017-03-12T13:13:26+01:00</time>
      </trkpt>
      <trkpt lat="49.89044" lon="4.7416">
        <ele>260</ele>
        <time>2017-03-12T13:14:05+01:00</time>
      </trkpt>
      <trkpt lat="49.89047" lon="4.74137">
        <ele>262</ele>
        <time>2017-03-12T13:14:36+01:00</time>
      </trkpt>
      <trkpt lat="49.89053" lon="4.74115">
        <ele>264</ele>
        <time>2017-03-12T13:15:34+01:00</time>
      </trkpt>
      <trkpt lat="49.89062" lon="4.74086">
        <ele>268</ele>
        <time>2017-03-12T13:16:10+01:00</time>
      </trkpt>
      <trkpt lat="49.89068" lon="4.74071">
        <ele>271</ele>
      </trkpt>
      <trkpt lat="49.89074" lon="4.74054">
        <ele>274</ele>
        <time>2017-03-12T13:16:56+01:00</time>
      </trkpt>
      <trkpt lat="49.89084" lon="4.74034">
        <ele>278</ele>
        <time>2017-03-12T13:17:16+01:00</time>
      </trkpt>
      <trkpt lat="49.89088" lon="4.74024">
        <ele>279</ele>
      </trkpt>
      <trkpt lat="49.89094" lon="4.73999">
        <ele>281</ele>
        <time>2017-03-12T13:17:49+01:00</time>
      </trkpt>
      <trkpt lat="49.89088" lon="4.73981">
        <ele>281</ele>
        <time>2017-03-12T13:19:22+01:00</time>
      </trkpt>
      <trkpt lat="49.89099" lon="4.73954">
        <ele>282</ele>
        <time>2017-03-12T13:20:42+01:00</time>
      </trkpt>
      <trkpt lat="49.89106" lon="4.73928">
        <ele>284</ele>
        <time>2017-03-12T13:21:32+01:00</time>
      </trkpt>
      <trkpt lat="49.89102" lon="4.739">
        <ele>284</ele>
        <time>2017-03-12T13:24:22+01:00</time>
      </trkpt>
      <trkpt lat="49.89111" lon="4.73877">
        <ele>285</ele>
        <time>2017-03-12T13:26:06+01:00</time>
      </trkpt>
      <trkpt lat="49.89128" lon="4.73884">
        <ele>290</ele>
        <time>2017-03-12T13:26:54+01:00</time>
      </trkpt>
      <trkpt lat="49.89146" lon="4.73884">
        <ele>295</ele>
        <time>2017-03-12T13:27:15+01:00</time>
      </trkpt>
      <trkpt lat="49.89163" lon="4.73905">
        <ele>298</ele>
        <time>2017-03-12T13:27:49+01:00</time>
      </trkpt>
      <trkpt lat="49.89173" lon="4.73899">
        <ele>299</ele>
      </trkpt>
      <trkpt lat="49.89188" lon="4.73884">
        <ele>300</ele>
        <time>2017-03-12T13:28:06+01:00</time>
      </trkpt>
      <trkpt lat="49.8919" lon="4.73855">
        <ele>302</ele>
        <time>2017-03-12T13:29:14+01:00</time>
      </trkpt>
      <trkpt lat="49.89194" lon="4.73828">
        <ele>304</ele>
        <time>2017-03-12T13:29:50+01:00</time>
      </trkpt>
      <trkpt lat="49.89198" lon="4.7381">
        <ele>305</ele>
        <time>2017-03-12T13:30:37+01:00</time>
      </trkpt>
      <trkpt lat="49.89206" lon="4.73781">
        <ele>308</ele>
        <time>2017-03-12T13:31:15+01:00</time>
      </trkpt>
      <trkpt lat="49.89208" lon="4.73755">
        <ele>310</ele>
        <time>2017-03-12T13:31:58+01:00</time>
      </trkpt>
      <trkpt lat="49.89215" lon="4.73726">
        <ele>313</ele>
        <time>2017-03-12T13:32:28+01:00</time>
      </trkpt>
      <trkpt lat="49.89219" lon="4.73698">
        <ele>315</ele>
        <time>2017-03-12T13:32:40+01:00</time>
      </trkpt>
      <trkpt lat="49.89216" lon="4.7367">
        <ele>316</ele>
        <time>2017-03-12T13:33:08+01:00</time>
      </trkpt>
      <trkpt lat="49.89216" lon="4.73642">
        <ele>317</ele>
        <time>2017-03-12T13:33:29+01:00</time>
      </trkpt>
      <trkpt lat="49.89217" lon="4.73612">
        <ele>319</ele>
        <time>2017-03-12T13:33:59+01:00</time>
      </trkpt>
      <trkpt lat="49.89217" lon="4.73598">
        <ele>319</ele>
      </trkpt>
      <trkpt lat="49.89217" lon="4.73574">
        <ele>320</ele>
      </trkpt>
      <trkpt lat="49.89215" lon="4.73559">
        <ele>321</ele>
        <time>2017-03-12T13:35:05+01:00</time>
      </trkpt>
      <trkpt lat="49.89213" lon="4.7353">
        <ele>322</ele>
        <time>2017-03-12T13:35:32+01:00</time>
      </trkpt>
      <trkpt lat="49.89208" lon="4.73502">
        <ele>322</ele>
        <time>2017-03-12T13:35:50+01:00</time>
      </trkpt>
      <trkpt lat="49.89201" lon="4.73479">
        <ele>322</ele>
        <time>2017-03-12T13:36:21+01:00</time>
      </trkpt>
      <trkpt lat="49.89191" lon="4.73452">
        <ele>323</ele>
        <time>2017-03-12T13:36:55+01:00</time>
      </trkpt>
      <trkpt lat="49.89187" lon="4.73425">
        <ele>324</ele>
        <time>2017-03-12T13:37:09+01:00</time>
      </trkpt>
      <trkpt lat="49.89176" lon="4.73401">
        <ele>325</ele>
        <time>2017-03-12T13:38:20+01:00</time>
      </trkpt>
      <trkpt lat="49.89168" lon="4.73376">
        <ele>326</ele>
        <time>2017-03-12T13:38:44+01:00</time>
      </trkpt>
      <trkpt lat="49.89161" lon="4.73349">
        <ele>325</ele>
        <time>2017-03-12T13:39:33+01:00</time>
      </trkpt>
      <trkpt lat="49.89152" lon="4.73325">
        <ele>322</ele>
        <time>2017-03-12T13:40:00+01:00</time>
      </trkpt>
      <trkpt lat="49.89154" lon="4.73297">
        <ele>325</ele>
        <time>2017-03-12T13:42:16+01:00</time>
      </trkpt>
      <trkpt lat="49.89153" lon="4.73268">
        <ele>327</ele>
        <time>2017-03-12T13:42:45+01:00</time>
      </trkpt>
      <trkpt lat="49.89153" lon="4.73239">
        <ele>329</ele>
        <time>2017-03-12T13:43:13+01:00</time>
      </trkpt>
      <trkpt lat="49.89137" lon="4.73223">
        <ele>323</ele>
        <time>2017-03-12T13:43:30+01:00</time>
      </trkpt>
      <trkpt lat="49.89137" lon="4.73195">
        <ele>325</ele>
        <time>2017-03-12T13:45:56+01:00</time>
      </trkpt>
      <trkpt lat="49.89135" lon="4.73166">
        <ele>325</ele>
        <time>2017-03-12T13:46:38+01:00</time>
      </trkpt>
      <trkpt lat="49.8914" lon="4.73139">
        <ele>329</ele>
        <time>2017-03-12T13:47:05+01:00</time>
      </trkpt>
      <trkpt lat="49.89143" lon="4.73111">
        <ele>332</ele>
        <time>2017-03-12T13:47:35+01:00</time>
      </trkpt>
      <trkpt lat="49.89134" lon="4.73085">
        <ele>332</ele>
        <time>2017-03-12T13:48:01+01:00</time>
      </trkpt>
      <trkpt lat="49.8913" lon="4.73057">
        <ele>333</ele>
        <time>2017-03-12T13:48:19+01:00</time>
      </trkpt>
      <trkpt lat="49.89123" lon="4.73031">
        <ele>334</ele>
        <time>2017-03-12T13:48:37+01:00</time>
      </trkpt>
      <trkpt lat="49.89121" lon="4.73008">
        <ele>335</ele>
        <time>2017-03-12T13:49:01+01:00</time>
      </trkpt>
      <trkpt lat="49.89119" lon="4.7299">
        <ele>337</ele>
      </trkpt>
      <trkpt lat="49.89117" lon="4.72974">
        <ele>339</ele>
        <time>2017-03-12T13:49:29+01:00</time>
      </trkpt>
      <trkpt lat="49.89119" lon="4.72946">
        <ele>344</ele>
        <time>2017-03-12T13:49:50+01:00</time>
      </trkpt>
      <trkpt lat="49.89119" lon="4.72918">
        <ele>349</ele>
        <time>2017-03-12T13:50:15+01:00</time>
      </trkpt>
      <trkpt lat="49.89115" lon="4.7289">
        <ele>352</ele>
        <time>2017-03-12T13:50:55+01:00</time>
      </trkpt>
      <trkpt lat="49.89108" lon="4.72864">
        <ele>356</ele>
        <time>2017-03-12T13:51:15+01:00</time>
      </trkpt>
      <trkpt lat="49.89096" lon="4.72842">
        <ele>359</ele>
        <time>2017-03-12T13:51:33+01:00</time>
      </trkpt>
      <trkpt lat="49.89088" lon="4.72817">
        <ele>361</ele>
        <time>2017-03-12T13:58:30+01:00</time>
      </trkpt>
      <trkpt lat="49.8908" lon="4.72792">
        <ele>364</ele>
        <time>2017-03-12T13:58:50+01:00</time>
      </trkpt>
      <trkpt lat="49.89069" lon="4.72764">
        <ele>365</ele>
        <time>2017-03-12T13:59:12+01:00</time>
      </trkpt>
      <trkpt lat="49.89055" lon="4.72749">
        <ele>364</ele>
        <time>2017-03-12T13:59:46+01:00</time>
      </trkpt>
      <trkpt lat="49.89028" lon="4.72747">
        <ele>358</ele>
      </trkpt>
      <trkpt lat="49.8902" lon="4.72724">
        <ele>360</ele>
      </trkpt>
      <trkpt lat="49.89007" lon="4.72683">
        <ele>364</ele>
      </trkpt>
      <trkpt lat="49.88986" lon="4.72651">
        <ele>361</ele>
      </trkpt>
      <trkpt lat="49.88968" lon="4.72621">
        <ele>360</ele>
      </trkpt>
      <trkpt lat="49.88944" lon="4.72573">
        <ele>361</ele>
      </trkpt>
      <trkpt lat="49.8893" lon="4.72541">
        <ele>362</ele>
      </trkpt>
      <trkpt lat="49.88916" lon="4.7249">
        <ele>366</ele>
      </trkpt>
      <trkpt lat="49.88901" lon="4.72466">
        <ele>363</ele>
      </trkpt>
      <trkpt lat="49.8888" lon="4.7244">
        <ele>361</ele>
      </trkpt>
      <trkpt lat="49.88866" lon="4.7241">
        <ele>362</ele>
      </trkpt>
      <trkpt lat="49.88841" lon="4.72384">
        <ele>360</ele>
      </trkpt>
      <trkpt lat="49.88812" lon="4.72361">
        <ele>355</ele>
      </trkpt>
      <trkpt lat="49.88785" lon="4.72335">
        <ele>350</ele>
      </trkpt>
      <trkpt lat="49.88758" lon="4.72314">
        <ele>345</ele>
      </trkpt>
      <trkpt lat="49.88721" lon="4.72281">
        <ele>337</ele>
      </trkpt>
      <trkpt lat="49.88696" lon="4.7226">
        <ele>332</ele>
      </trkpt>
      <trkpt lat="49.88671" lon="4.72239">
        <ele>328</ele>
      </trkpt>
      <trkpt lat="49.88659" lon="4.72202">
        <ele>328</ele>
      </trkpt>
      <trkpt lat="49.88639" lon="4.7217">
        <ele>326</ele>
      </trkpt>
      <trkpt lat="49.88631" lon="4.7214">
        <ele>327</ele>
      </trkpt>
      <trkpt lat="49.88599" lon="4.72118">
        <ele>321</ele>
      </trkpt>
      <trkpt lat="49.88572" lon="4.72095">
        <ele>318</ele>
      </trkpt>
      <trkpt lat="49.88548" lon="4.7208">
        <ele>315</ele>
      </trkpt>
      <trkpt lat="49.88526" lon="4.72063">
        <ele>312</ele>
      </trkpt>
      <trkpt lat="49.88487" lon="4.72043">
        <ele>306</ele>
      </trkpt>
      <trkpt lat="49.88461" lon="4.72026">
        <ele>304</ele>
      </trkpt>
      <trkpt lat="49.88439" lon="4.72009">
        <ele>303</ele>
      </trkpt>
      <trkpt lat="49.8841" lon="4.71994">
        <ele>301</ele>
      </trkpt>
      <trkpt lat="49.88392" lon="4.7199">
        <ele>300</ele>
      </trkpt>
      <trkpt lat="49.8837" lon="4.71975">
        <ele>299</ele>
      </trkpt>
      <trkpt lat="49.88352" lon="4.71983">
        <ele>297</ele>
      </trkpt>
      <trkpt lat="49.88337" lon="4.71996">
        <ele>295</ele>
      </trkpt>
      <trkpt lat="49.88319" lon="4.72022">
        <ele>291</ele>
      </trkpt>
      <trkpt lat="49.88302" lon="4.72043">
        <ele>289</ele>
      </trkpt>
      <trkpt lat="49.88291" lon="4.72084">
        <ele>284</ele>
      </trkpt>
      <trkpt lat="49.88272" lon="4.72123">
        <ele>282</ele>
      </trkpt>
      <trkpt lat="49.88261" lon="4.72153">
        <ele>280</ele>
      </trkpt>
      <trkpt lat="49.88266" lon="4.72181">
        <ele>278</ele>
      </trkpt>
      <trkpt lat="49.88281" lon="4.72185">
        <ele>276</ele>
      </trkpt>
      <trkpt lat="49.88305" lon="4.72133">
        <ele>278</ele>
      </trkpt>
      <trkpt lat="49.88341" lon="4.72123">
        <ele>278</ele>
      </trkpt>
      <trkpt lat="49.88388" lon="4.7217">
        <ele>268</ele>
      </trkpt>
      <trkpt lat="49.88417" lon="4.72189">
        <ele>262</ele>
      </trkpt>
      <trkpt lat="49.88443" lon="4.72226">
        <ele>262</ele>
      </trkpt>
      <trkpt lat="49.88457" lon="4.72262">
        <ele>257</ele>
      </trkpt>
      <trkpt lat="49.88473" lon="4.72305">
        <ele>248</ele>
      </trkpt>
      <trkpt lat="49.88487" lon="4.72348">
        <ele>241</ele>
      </trkpt>
      <trkpt lat="49.88507" lon="4.72395">
        <ele>237</ele>
      </trkpt>
      <trkpt lat="49.88529" lon="4.72427">
        <ele>236</ele>
      </trkpt>
      <trkpt lat="49.8855" lon="4.72457">
        <ele>232</ele>
      </trkpt>
      <trkpt lat="49.88563" lon="4.72483">
        <ele>227</ele>
      </trkpt>
      <trkpt lat="49.88579" lon="4.72511">
        <ele>221</ele>
      </trkpt>
      <trkpt lat="49.88585" lon="4.72543">
        <ele>212</ele>
      </trkpt>
      <trkpt lat="49.88584" lon="4.7258">
        <ele>198</ele>
      </trkpt>
      <trkpt lat="49.8861" lon="4.72601">
        <ele>203</ele>
      </trkpt>
      <trkpt lat="49.88648" lon="4.72644">
        <ele>201</ele>
      </trkpt>
      <trkpt lat="49.88664" lon="4.72668">
        <ele>198</ele>
      </trkpt>
      <trkpt lat="49.88677" lon="4.72715">
        <ele>188</ele>
      </trkpt>
      <trkpt lat="49.88689" lon="4.72749">
        <ele>183</ele>
      </trkpt>
      <trkpt lat="49.88706" lon="4.72786">
        <ele>181</ele>
      </trkpt>
      <trkpt lat="49.8872" lon="4.72822">
        <ele>177</ele>
      </trkpt>
      <trkpt lat="49.88738" lon="4.72852">
        <ele>178</ele>
      </trkpt>
      <trkpt lat="49.88746" lon="4.72889">
        <ele>173</ele>
      </trkpt>
      <trkpt lat="49.88753" lon="4.72925">
        <ele>167</ele>
      </trkpt>
      <trkpt lat="49.88762" lon="4.72957">
        <ele>164</ele>
      </trkpt>
      <trkpt lat="49.88773" lon="4.72998">
        <ele>159</ele>
      </trkpt>
      <trkpt lat="49.88782" lon="4.73017">
        <ele>161</ele>
      </trkpt>
      <trkpt lat="49.88786" lon="4.73056">
        <ele>157</ele>
      </trkpt>
      <trkpt lat="49.8879" lon="4.73097">
        <ele>152</ele>
      </trkpt>
      <trkpt lat="49.88797" lon="4.7314">
        <ele>148</ele>
      </trkpt>
      <trkpt lat="49.88805" lon="4.73178">
        <ele>146</ele>
      </trkpt>
      <trkpt lat="49.88809" lon="4.73221">
        <ele>147</ele>
      </trkpt>
      <trkpt lat="49.88812" lon="4.73266">
        <ele>148</ele>
      </trkpt>
      <trkpt lat="49.88812" lon="4.7329">
        <ele>147</ele>
      </trkpt>
      <trkpt lat="49.88826" lon="4.73318">
        <ele>150</ele>
      </trkpt>
      <trkpt lat="49.88827" lon="4.73354">
        <ele>149</ele>
      </trkpt>
      <trkpt lat="49.88825" lon="4.73389">
        <ele>147</ele>
      </trkpt>
      <trkpt lat="49.88816" lon="4.73423">
        <ele>144</ele>
      </trkpt>
      <trkpt lat="49.88803" lon="4.73479">
        <ele>143</ele>
      </trkpt>
      <trkpt lat="49.88786" lon="4.73511">
        <ele>142</ele>
      </trkpt>
      <trkpt lat="49.88767" lon="4.73554">
        <ele>142</ele>
      </trkpt>
      <trkpt lat="49.88751" lon="4.7359">
        <ele>141</ele>
      </trkpt>
      <trkpt lat="49.88732" lon="4.73618">
        <ele>141</ele>
      </trkpt>
      <trkpt lat="49.88711" lon="4.73646">
        <ele>141</ele>
      </trkpt>
      <trkpt lat="49.88695" lon="4.73672">
        <ele>141</ele>
      </trkpt>
      <trkpt lat="49.88684" lon="4.73689">
        <ele>142</ele>
      </trkpt>
      <trkpt lat="49.88664" lon="4.73721">
        <ele>141</ele>
        <time>2017-03-12T15:01:05+01:00</time>
      </trkpt>
      <trkpt lat="49.88653" lon="4.73744">
        <ele>141</ele>
        <time>2017-03-12T15:01:24+01:00</time>
      </trkpt>
      <trkpt lat="49.88636" lon="4.73755">
        <ele>140</ele>
        <time>2017-03-12T15:01:46+01:00</time>
      </trkpt>
      <trkpt lat="49.88619" lon="4.73765">
        <ele>140</ele>
        <time>2017-03-12T15:02:00+01:00</time>
      </trkpt>
      <trkpt lat="49.886" lon="4.73774">
        <ele>139</ele>
        <time>2017-03-12T15:02:17+01:00</time>
      </trkpt>
      <trkpt lat="49.88583" lon="4.73782">
        <ele>139</ele>
        <time>2017-03-12T15:02:45+01:00</time>
      </trkpt>
      <trkpt lat="49.88566" lon="4.73791">
        <ele>139</ele>
        <time>2017-03-12T15:03:23+01:00</time>
      </trkpt>
      <trkpt lat="49.88547" lon="4.738">
        <ele>139</ele>
        <time>2017-03-12T15:03:38+01:00</time>
      </trkpt>
      <trkpt lat="49.88531" lon="4.73812">
        <ele>139</ele>
        <time>2017-03-12T15:03:53+01:00</time>
      </trkpt>
      <trkpt lat="49.88513" lon="4.73817">
        <ele>139</ele>
        <time>2017-03-12T15:04:11+01:00</time>
      </trkpt>
      <trkpt lat="49.88519" lon="4.73848">
        <ele>140</ele>
        <time>2017-03-12T15:04:42+01:00</time>
      </trkpt>
    </trkseg>
  </trk>
</gpx>